sensor_id;sensor_type;location;lat;lon;timestamp;temperature;humidity
50955;DHT22;36966;48.064;-0.792;2023-06-04T00:01:07;23.70;45.70
50955;DHT22;36966;48.064;-0.792;2023-06-04T00:03:26;23.70;45.70
50955;DHT22;36966;48.064;-0.792;2023-06-04T00:05:45;23.70;45.70
50955;DHT22;36966;48.064;-0.792;2023-06-04T00:08:05;23.70;45.60
50955;DHT22;36966;48.064;-0.792;2023-06-04T00:10:24;23.70;45.60
50955;DHT22;36966;48.064;-0.792;2023-06-04T00:12:43;23.60;45.60
50955;DHT22;36966;48.064;-0.792;2023-06-04T00:15:02;23.60;45.60
50955;DHT22;36966;48.064;-0.792;2023-06-04T00:17:21;23.60;45.60
50955;DHT22;36966;48.064;-0.792;2023-06-04T00:19:41;23.60;45.50
50955;DHT22;36966;48.064;-0.792;2023-06-04T00:22:00;23.60;45.50
50955;DHT22;36966;48.064;-0.792;2023-06-04T00:24:20;23.60;45.50
50955;DHT22;36966;48.064;-0.792;2023-06-04T00:26:39;23.60;45.50
50955;DHT22;36966;48.064;-0.792;2023-06-04T00:28:59;23.60;45.40
50955;DHT22;36966;48.064;-0.792;2023-06-04T00:31:19;23.50;45.40
50955;DHT22;36966;48.064;-0.792;2023-06-04T00:33:38;23.50;45.40
50955;DHT22;36966;48.064;-0.792;2023-06-04T00:35:58;23.60;45.40
50955;DHT22;36966;48.064;-0.792;2023-06-04T00:38:17;23.60;45.40
50955;DHT22;36966;48.064;-0.792;2023-06-04T00:40:36;23.50;45.30
50955;DHT22;36966;48.064;-0.792;2023-06-04T00:42:55;23.50;45.30
50955;DHT22;36966;48.064;-0.792;2023-06-04T00:45:15;23.50;45.30
50955;DHT22;36966;48.064;-0.792;2023-06-04T00:47:37;23.50;45.20
50955;DHT22;36966;48.064;-0.792;2023-06-04T00:49:56;23.50;45.20
50955;DHT22;36966;48.064;-0.792;2023-06-04T00:52:17;23.40;45.20
50955;DHT22;36966;48.064;-0.792;2023-06-04T00:54:36;23.50;45.20
50955;DHT22;36966;48.064;-0.792;2023-06-04T00:56:56;23.50;45.10
50955;DHT22;36966;48.064;-0.792;2023-06-04T00:59:16;23.50;45.20
50955;DHT22;36966;48.064;-0.792;2023-06-04T01:04:27;23.40;45.10
50955;DHT22;36966;48.064;-0.792;2023-06-04T01:06:49;23.40;45.10
50955;DHT22;36966;48.064;-0.792;2023-06-04T01:09:09;23.40;45.10
50955;DHT22;36966;48.064;-0.792;2023-06-04T01:13:51;23.40;45.00
50955;DHT22;36966;48.064;-0.792;2023-06-04T01:16:10;23.40;45.00
50955;DHT22;36966;48.064;-0.792;2023-06-04T01:18:30;23.40;45.00
50955;DHT22;36966;48.064;-0.792;2023-06-04T01:20:52;23.40;45.00
50955;DHT22;36966;48.064;-0.792;2023-06-04T01:23:18;23.40;45.00
50955;DHT22;36966;48.064;-0.792;2023-06-04T01:25:39;23.40;44.90
50955;DHT22;36966;48.064;-0.792;2023-06-04T01:27:58;23.40;44.90
50955;DHT22;36966;48.064;-0.792;2023-06-04T01:30:23;23.30;44.90
50955;DHT22;36966;48.064;-0.792;2023-06-04T01:32:44;23.30;44.90
50955;DHT22;36966;48.064;-0.792;2023-06-04T01:35:07;23.40;44.90
50955;DHT22;36966;48.064;-0.792;2023-06-04T01:37:26;23.30;44.90
50955;DHT22;36966;48.064;-0.792;2023-06-04T01:39:45;23.30;44.80
50955;DHT22;36966;48.064;-0.792;2023-06-04T01:42:04;23.30;44.80
50955;DHT22;36966;48.064;-0.792;2023-06-04T01:44:24;23.30;44.80
50955;DHT22;36966;48.064;-0.792;2023-06-04T01:46:43;23.30;44.70
50955;DHT22;36966;48.064;-0.792;2023-06-04T01:49:02;23.30;44.80
50955;DHT22;36966;48.064;-0.792;2023-06-04T01:51:23;23.30;44.70
50955;DHT22;36966;48.064;-0.792;2023-06-04T01:53:42;23.30;44.70
50955;DHT22;36966;48.064;-0.792;2023-06-04T01:56:01;23.30;44.70
50955;DHT22;36966;48.064;-0.792;2023-06-04T01:58:21;23.30;44.70
50955;DHT22;36966;48.064;-0.792;2023-06-04T02:00:45;23.30;44.70
50955;DHT22;36966;48.064;-0.792;2023-06-04T02:03:05;23.30;44.60
50955;DHT22;36966;48.064;-0.792;2023-06-04T02:05:25;23.30;44.60
50955;DHT22;36966;48.064;-0.792;2023-06-04T02:07:44;23.30;44.60
50955;DHT22;36966;48.064;-0.792;2023-06-04T02:10:08;23.30;44.60
50955;DHT22;36966;48.064;-0.792;2023-06-04T02:12:27;23.20;44.60
50955;DHT22;36966;48.064;-0.792;2023-06-04T02:14:47;23.20;44.50
50955;DHT22;36966;48.064;-0.792;2023-06-04T02:17:06;23.20;44.50
50955;DHT22;36966;48.064;-0.792;2023-06-04T02:19:31;23.20;44.50
50955;DHT22;36966;48.064;-0.792;2023-06-04T02:21:53;23.20;44.50
50955;DHT22;36966;48.064;-0.792;2023-06-04T02:24:12;23.20;44.50
50955;DHT22;36966;48.064;-0.792;2023-06-04T02:26:31;23.20;44.50
50955;DHT22;36966;48.064;-0.792;2023-06-04T02:28:51;23.20;44.50
50955;DHT22;36966;48.064;-0.792;2023-06-04T02:31:10;23.20;44.40
50955;DHT22;36966;48.064;-0.792;2023-06-04T02:33:30;23.20;44.40
50955;DHT22;36966;48.064;-0.792;2023-06-04T02:35:49;23.20;44.40
50955;DHT22;36966;48.064;-0.792;2023-06-04T02:38:09;23.20;44.40
50955;DHT22;36966;48.064;-0.792;2023-06-04T02:40:29;23.20;44.40
50955;DHT22;36966;48.064;-0.792;2023-06-04T02:42:48;23.20;44.30
50955;DHT22;36966;48.064;-0.792;2023-06-04T02:45:07;23.20;44.30
50955;DHT22;36966;48.064;-0.792;2023-06-04T02:47:27;23.20;44.30
50955;DHT22;36966;48.064;-0.792;2023-06-04T02:49:46;23.20;44.30
50955;DHT22;36966;48.064;-0.792;2023-06-04T02:52:06;23.10;44.30
50955;DHT22;36966;48.064;-0.792;2023-06-04T02:54:25;23.20;44.20
50955;DHT22;36966;48.064;-0.792;2023-06-04T02:56:44;23.20;44.20
50955;DHT22;36966;48.064;-0.792;2023-06-04T02:59:03;23.20;44.20
50955;DHT22;36966;48.064;-0.792;2023-06-04T03:01:23;23.10;44.20
50955;DHT22;36966;48.064;-0.792;2023-06-04T03:03:42;23.20;44.20
50955;DHT22;36966;48.064;-0.792;2023-06-04T03:06:03;23.20;44.20
50955;DHT22;36966;48.064;-0.792;2023-06-04T03:08:23;23.10;44.10
50955;DHT22;36966;48.064;-0.792;2023-06-04T03:10:42;23.10;44.10
50955;DHT22;36966;48.064;-0.792;2023-06-04T03:13:02;23.10;44.10
50955;DHT22;36966;48.064;-0.792;2023-06-04T03:15:21;23.10;44.10
50955;DHT22;36966;48.064;-0.792;2023-06-04T03:17:41;23.10;44.00
50955;DHT22;36966;48.064;-0.792;2023-06-04T03:20:01;23.10;44.00
50955;DHT22;36966;48.064;-0.792;2023-06-04T03:22:20;23.10;44.00
50955;DHT22;36966;48.064;-0.792;2023-06-04T03:24:39;23.10;44.00
50955;DHT22;36966;48.064;-0.792;2023-06-04T03:26:59;23.10;44.00
50955;DHT22;36966;48.064;-0.792;2023-06-04T03:29:18;23.10;43.90
50955;DHT22;36966;48.064;-0.792;2023-06-04T03:31:37;23.00;43.90
50955;DHT22;36966;48.064;-0.792;2023-06-04T03:33:57;23.10;43.90
50955;DHT22;36966;48.064;-0.792;2023-06-04T03:36:16;23.00;43.90
50955;DHT22;36966;48.064;-0.792;2023-06-04T03:38:35;23.00;43.80
50955;DHT22;36966;48.064;-0.792;2023-06-04T03:40:54;23.00;43.80
50955;DHT22;36966;48.064;-0.792;2023-06-04T03:43:14;23.00;43.80
50955;DHT22;36966;48.064;-0.792;2023-06-04T03:45:33;23.00;43.80
50955;DHT22;36966;48.064;-0.792;2023-06-04T03:47:52;23.00;43.70
50955;DHT22;36966;48.064;-0.792;2023-06-04T03:50:12;23.00;43.70
50955;DHT22;36966;48.064;-0.792;2023-06-04T03:52:31;23.00;43.70
50955;DHT22;36966;48.064;-0.792;2023-06-04T03:54:50;23.00;43.70
50955;DHT22;36966;48.064;-0.792;2023-06-04T03:57:09;23.00;43.70
50955;DHT22;36966;48.064;-0.792;2023-06-04T03:59:29;23.00;43.60
50955;DHT22;36966;48.064;-0.792;2023-06-04T04:01:54;23.00;43.60
50955;DHT22;36966;48.064;-0.792;2023-06-04T04:04:13;23.00;43.60
50955;DHT22;36966;48.064;-0.792;2023-06-04T04:06:32;23.00;43.50
50955;DHT22;36966;48.064;-0.792;2023-06-04T04:08:52;23.00;43.50
50955;DHT22;36966;48.064;-0.792;2023-06-04T04:11:12;23.00;43.50
50955;DHT22;36966;48.064;-0.792;2023-06-04T04:13:32;23.00;43.50
50955;DHT22;36966;48.064;-0.792;2023-06-04T04:15:51;23.00;43.40
50955;DHT22;36966;48.064;-0.792;2023-06-04T04:18:13;23.00;43.40
50955;DHT22;36966;48.064;-0.792;2023-06-04T04:20:36;23.00;43.40
50955;DHT22;36966;48.064;-0.792;2023-06-04T04:22:55;23.00;43.40
50955;DHT22;36966;48.064;-0.792;2023-06-04T04:25:15;23.00;43.30
50955;DHT22;36966;48.064;-0.792;2023-06-04T04:27:34;23.00;43.30
50955;DHT22;36966;48.064;-0.792;2023-06-04T04:29:57;23.00;43.30
50955;DHT22;36966;48.064;-0.792;2023-06-04T04:32:19;23.00;43.20
50955;DHT22;36966;48.064;-0.792;2023-06-04T04:34:49;23.00;43.20
50955;DHT22;36966;48.064;-0.792;2023-06-04T04:37:10;23.10;43.10
50955;DHT22;36966;48.064;-0.792;2023-06-04T04:39:29;23.10;43.10
50955;DHT22;36966;48.064;-0.792;2023-06-04T04:41:49;23.10;43.10
50955;DHT22;36966;48.064;-0.792;2023-06-04T04:44:08;23.10;43.20
50955;DHT22;36966;48.064;-0.792;2023-06-04T04:46:27;23.20;43.10
50955;DHT22;36966;48.064;-0.792;2023-06-04T04:48:46;23.20;43.10
50955;DHT22;36966;48.064;-0.792;2023-06-04T04:51:06;23.20;43.00
50955;DHT22;36966;48.064;-0.792;2023-06-04T04:53:25;23.20;42.90
50955;DHT22;36966;48.064;-0.792;2023-06-04T04:55:45;23.20;43.00
50955;DHT22;36966;48.064;-0.792;2023-06-04T04:58:04;23.20;42.80
50955;DHT22;36966;48.064;-0.792;2023-06-04T05:00:26;23.20;42.80
50955;DHT22;36966;48.064;-0.792;2023-06-04T05:02:49;23.20;42.80
50955;DHT22;36966;48.064;-0.792;2023-06-04T05:05:14;23.20;42.70
50955;DHT22;36966;48.064;-0.792;2023-06-04T05:07:34;23.20;42.70
50955;DHT22;36966;48.064;-0.792;2023-06-04T05:09:53;23.30;42.70
50955;DHT22;36966;48.064;-0.792;2023-06-04T05:12:18;23.20;42.70
50955;DHT22;36966;48.064;-0.792;2023-06-04T05:14:40;23.20;42.60
50955;DHT22;36966;48.064;-0.792;2023-06-04T05:17:01;23.30;42.60
50955;DHT22;36966;48.064;-0.792;2023-06-04T05:19:23;23.30;42.60
50955;DHT22;36966;48.064;-0.792;2023-06-04T05:21:43;23.20;42.60
50955;DHT22;36966;48.064;-0.792;2023-06-04T05:24:03;23.20;42.60
50955;DHT22;36966;48.064;-0.792;2023-06-04T05:26:23;23.20;42.50
50955;DHT22;36966;48.064;-0.792;2023-06-04T05:28:47;23.30;42.50
50955;DHT22;36966;48.064;-0.792;2023-06-04T05:31:06;23.30;42.50
50955;DHT22;36966;48.064;-0.792;2023-06-04T05:33:27;23.30;42.50
50955;DHT22;36966;48.064;-0.792;2023-06-04T05:35:47;23.30;42.40
50955;DHT22;36966;48.064;-0.792;2023-06-04T05:38:11;23.30;42.40
50955;DHT22;36966;48.064;-0.792;2023-06-04T05:40:34;23.30;42.40
50955;DHT22;36966;48.064;-0.792;2023-06-04T05:42:54;23.30;42.40
50955;DHT22;36966;48.064;-0.792;2023-06-04T05:45:13;23.30;42.30
50955;DHT22;36966;48.064;-0.792;2023-06-04T05:47:32;23.30;42.30
50955;DHT22;36966;48.064;-0.792;2023-06-04T05:49:52;23.30;42.30
50955;DHT22;36966;48.064;-0.792;2023-06-04T05:52:11;23.30;42.30
50955;DHT22;36966;48.064;-0.792;2023-06-04T05:54:30;23.30;42.30
50955;DHT22;36966;48.064;-0.792;2023-06-04T05:56:50;23.30;42.30
50955;DHT22;36966;48.064;-0.792;2023-06-04T05:59:09;23.30;42.30
50955;DHT22;36966;48.064;-0.792;2023-06-04T06:01:28;23.30;42.30
50955;DHT22;36966;48.064;-0.792;2023-06-04T06:03:48;23.30;42.20
50955;DHT22;36966;48.064;-0.792;2023-06-04T06:06:07;23.30;42.20
50955;DHT22;36966;48.064;-0.792;2023-06-04T06:08:29;23.30;42.20
50955;DHT22;36966;48.064;-0.792;2023-06-04T06:10:48;23.40;42.20
50955;DHT22;36966;48.064;-0.792;2023-06-04T06:13:07;23.30;42.20
50955;DHT22;36966;48.064;-0.792;2023-06-04T06:15:26;23.40;42.20
50955;DHT22;36966;48.064;-0.792;2023-06-04T06:17:46;23.40;42.20
50955;DHT22;36966;48.064;-0.792;2023-06-04T06:20:05;23.30;42.20
50955;DHT22;36966;48.064;-0.792;2023-06-04T06:22:26;23.30;42.20
50955;DHT22;36966;48.064;-0.792;2023-06-04T06:24:46;23.40;42.30
50955;DHT22;36966;48.064;-0.792;2023-06-04T06:27:07;23.40;42.30
50955;DHT22;36966;48.064;-0.792;2023-06-04T06:29:27;23.40;42.20
50955;DHT22;36966;48.064;-0.792;2023-06-04T06:31:46;23.40;42.10
50955;DHT22;36966;48.064;-0.792;2023-06-04T06:34:06;23.50;42.10
50955;DHT22;36966;48.064;-0.792;2023-06-04T06:36:25;23.50;42.00
50955;DHT22;36966;48.064;-0.792;2023-06-04T06:38:45;23.50;42.00
50955;DHT22;36966;48.064;-0.792;2023-06-04T06:41:05;23.50;42.00
50955;DHT22;36966;48.064;-0.792;2023-06-04T06:43:24;23.50;42.00
50955;DHT22;36966;48.064;-0.792;2023-06-04T06:45:43;23.50;41.90
50955;DHT22;36966;48.064;-0.792;2023-06-04T06:48:03;23.50;41.90
50955;DHT22;36966;48.064;-0.792;2023-06-04T06:50:22;23.50;41.80
50955;DHT22;36966;48.064;-0.792;2023-06-04T06:52:41;23.50;41.80
50955;DHT22;36966;48.064;-0.792;2023-06-04T06:55:01;23.60;41.80
50955;DHT22;36966;48.064;-0.792;2023-06-04T06:57:20;23.60;41.80
50955;DHT22;36966;48.064;-0.792;2023-06-04T06:59:39;23.60;41.70
50955;DHT22;36966;48.064;-0.792;2023-06-04T07:01:59;23.70;41.60
50955;DHT22;36966;48.064;-0.792;2023-06-04T07:04:18;23.70;41.60
50955;DHT22;36966;48.064;-0.792;2023-06-04T07:06:37;23.70;41.40
50955;DHT22;36966;48.064;-0.792;2023-06-04T07:08:57;23.70;41.50
50955;DHT22;36966;48.064;-0.792;2023-06-04T07:11:16;23.80;41.40
50955;DHT22;36966;48.064;-0.792;2023-06-04T07:13:35;23.80;41.40
50955;DHT22;36966;48.064;-0.792;2023-06-04T07:15:55;23.80;41.30
50955;DHT22;36966;48.064;-0.792;2023-06-04T07:18:14;23.80;41.30
50955;DHT22;36966;48.064;-0.792;2023-06-04T07:20:33;23.80;41.40
50955;DHT22;36966;48.064;-0.792;2023-06-04T07:22:52;23.80;41.40
50955;DHT22;36966;48.064;-0.792;2023-06-04T07:25:12;23.90;41.40
50955;DHT22;36966;48.064;-0.792;2023-06-04T07:27:31;23.90;41.50
50955;DHT22;36966;48.064;-0.792;2023-06-04T07:29:50;23.90;41.30
50955;DHT22;36966;48.064;-0.792;2023-06-04T07:32:10;23.90;41.40
50955;DHT22;36966;48.064;-0.792;2023-06-04T07:34:29;24.00;41.20
50955;DHT22;36966;48.064;-0.792;2023-06-04T07:36:48;24.00;41.10
50955;DHT22;36966;48.064;-0.792;2023-06-04T07:39:08;24.10;41.20
50955;DHT22;36966;48.064;-0.792;2023-06-04T07:41:27;24.10;41.00
50955;DHT22;36966;48.064;-0.792;2023-06-04T07:43:47;24.10;41.10
50955;DHT22;36966;48.064;-0.792;2023-06-04T07:46:06;24.10;41.00
50955;DHT22;36966;48.064;-0.792;2023-06-04T07:48:25;24.20;41.00
50955;DHT22;36966;48.064;-0.792;2023-06-04T07:50:49;24.20;40.90
50955;DHT22;36966;48.064;-0.792;2023-06-04T07:53:08;24.20;41.00
50955;DHT22;36966;48.064;-0.792;2023-06-04T07:55:28;24.30;40.90
50955;DHT22;36966;48.064;-0.792;2023-06-04T07:57:48;24.30;40.90
50955;DHT22;36966;48.064;-0.792;2023-06-04T08:00:07;24.30;40.80
50955;DHT22;36966;48.064;-0.792;2023-06-04T08:02:27;24.30;40.70
50955;DHT22;36966;48.064;-0.792;2023-06-04T08:04:46;24.40;40.60
50955;DHT22;36966;48.064;-0.792;2023-06-04T08:07:06;24.40;40.50
50955;DHT22;36966;48.064;-0.792;2023-06-04T08:09:25;24.40;40.40
50955;DHT22;36966;48.064;-0.792;2023-06-04T08:11:44;24.50;40.50
50955;DHT22;36966;48.064;-0.792;2023-06-04T08:14:04;24.50;40.60
50955;DHT22;36966;48.064;-0.792;2023-06-04T08:16:23;24.50;40.60
50955;DHT22;36966;48.064;-0.792;2023-06-04T08:18:45;24.50;40.60
50955;DHT22;36966;48.064;-0.792;2023-06-04T08:21:04;24.60;40.50
50955;DHT22;36966;48.064;-0.792;2023-06-04T08:23:25;24.60;40.50
50955;DHT22;36966;48.064;-0.792;2023-06-04T08:25:44;24.60;40.60
50955;DHT22;36966;48.064;-0.792;2023-06-04T08:28:03;24.60;40.50
50955;DHT22;36966;48.064;-0.792;2023-06-04T08:30:23;24.70;40.50
50955;DHT22;36966;48.064;-0.792;2023-06-04T08:32:42;24.70;40.60
50955;DHT22;36966;48.064;-0.792;2023-06-04T08:35:02;24.70;40.50
50955;DHT22;36966;48.064;-0.792;2023-06-04T08:37:21;24.70;40.40
50955;DHT22;36966;48.064;-0.792;2023-06-04T08:39:43;24.80;40.10
50955;DHT22;36966;48.064;-0.792;2023-06-04T08:42:06;24.80;40.20
50955;DHT22;36966;48.064;-0.792;2023-06-04T08:44:29;24.90;40.10
50955;DHT22;36966;48.064;-0.792;2023-06-04T08:46:52;24.90;40.10
50955;DHT22;36966;48.064;-0.792;2023-06-04T08:49:12;24.90;40.10
50955;DHT22;36966;48.064;-0.792;2023-06-04T08:51:33;25.00;40.40
50955;DHT22;36966;48.064;-0.792;2023-06-04T08:53:52;25.00;40.30
50955;DHT22;36966;48.064;-0.792;2023-06-04T08:56:13;25.00;40.30
50955;DHT22;36966;48.064;-0.792;2023-06-04T08:58:32;25.00;40.40
50955;DHT22;36966;48.064;-0.792;2023-06-04T09:00:55;25.00;40.20
50955;DHT22;36966;48.064;-0.792;2023-06-04T09:03:14;25.30;38.30
50955;DHT22;36966;48.064;-0.792;2023-06-04T09:05:34;25.50;37.10
50955;DHT22;36966;48.064;-0.792;2023-06-04T09:07:54;25.30;37.60
50955;DHT22;36966;48.064;-0.792;2023-06-04T09:10:18;25.50;36.20
50955;DHT22;36966;48.064;-0.792;2023-06-04T09:12:39;25.60;38.20
50955;DHT22;36966;48.064;-0.792;2023-06-04T09:15:01;25.60;37.40
50955;DHT22;36966;48.064;-0.792;2023-06-04T09:17:21;25.40;37.70
50955;DHT22;36966;48.064;-0.792;2023-06-04T09:19:41;25.30;38.10
50955;DHT22;36966;48.064;-0.792;2023-06-04T09:22:00;25.40;37.40
50955;DHT22;36966;48.064;-0.792;2023-06-04T09:24:38;25.30;38.40
50955;DHT22;36966;48.064;-0.792;2023-06-04T09:26:59;25.10;37.60
50955;DHT22;36966;48.064;-0.792;2023-06-04T09:29:27;25.30;38.20
50955;DHT22;36966;48.064;-0.792;2023-06-04T09:31:47;25.20;38.50
50955;DHT22;36966;48.064;-0.792;2023-06-04T09:34:16;25.10;39.10
50955;DHT22;36966;48.064;-0.792;2023-06-04T09:36:45;25.20;39.50
50955;DHT22;36966;48.064;-0.792;2023-06-04T09:39:18;25.30;38.40
50955;DHT22;36966;48.064;-0.792;2023-06-04T09:41:37;25.40;38.90
50955;DHT22;36966;48.064;-0.792;2023-06-04T09:44:00;25.40;39.20
50955;DHT22;36966;48.064;-0.792;2023-06-04T09:46:21;25.50;38.60
50955;DHT22;36966;48.064;-0.792;2023-06-04T09:48:41;25.50;38.90
50955;DHT22;36966;48.064;-0.792;2023-06-04T09:51:07;25.40;39.70
50955;DHT22;36966;48.064;-0.792;2023-06-04T09:53:27;25.50;39.50
50955;DHT22;36966;48.064;-0.792;2023-06-04T09:56:08;25.60;38.90
50955;DHT22;36966;48.064;-0.792;2023-06-04T09:58:27;25.70;39.90
50955;DHT22;36966;48.064;-0.792;2023-06-04T10:00:47;25.80;39.40
50955;DHT22;36966;48.064;-0.792;2023-06-04T10:03:06;25.60;39.20
50955;DHT22;36966;48.064;-0.792;2023-06-04T10:05:31;25.70;39.00
50955;DHT22;36966;48.064;-0.792;2023-06-04T10:07:51;25.70;39.90
50955;DHT22;36966;48.064;-0.792;2023-06-04T10:10:14;25.80;39.00
50955;DHT22;36966;48.064;-0.792;2023-06-04T10:12:35;25.70;38.80
50955;DHT22;36966;48.064;-0.792;2023-06-04T10:15:01;26.00;38.70
50955;DHT22;36966;48.064;-0.792;2023-06-04T10:17:22;26.80;38.20
50955;DHT22;36966;48.064;-0.792;2023-06-04T10:19:42;27.30;37.30
50955;DHT22;36966;48.064;-0.792;2023-06-04T10:22:02;27.50;37.20
50955;DHT22;36966;48.064;-0.792;2023-06-04T10:24:22;27.60;36.90
50955;DHT22;36966;48.064;-0.792;2023-06-04T10:26:43;27.70;36.90
50955;DHT22;36966;48.064;-0.792;2023-06-04T10:29:02;27.70;37.00
50955;DHT22;36966;48.064;-0.792;2023-06-04T10:31:21;27.80;37.00
50955;DHT22;36966;48.064;-0.792;2023-06-04T10:33:41;27.80;37.10
50955;DHT22;36966;48.064;-0.792;2023-06-04T10:36:10;27.80;37.10
50955;DHT22;36966;48.064;-0.792;2023-06-04T10:38:34;27.80;37.00
50955;DHT22;36966;48.064;-0.792;2023-06-04T10:41:12;27.90;37.10
50955;DHT22;36966;48.064;-0.792;2023-06-04T10:43:32;28.00;37.10
50955;DHT22;36966;48.064;-0.792;2023-06-04T10:45:51;28.00;35.90
50955;DHT22;36966;48.064;-0.792;2023-06-04T10:48:11;28.00;36.40
50955;DHT22;36966;48.064;-0.792;2023-06-04T10:50:32;28.00;36.50
50955;DHT22;36966;48.064;-0.792;2023-06-04T10:52:52;28.10;36.80
50955;DHT22;36966;48.064;-0.792;2023-06-04T10:55:11;28.20;36.90
50955;DHT22;36966;48.064;-0.792;2023-06-04T10:57:31;28.20;36.60
50955;DHT22;36966;48.064;-0.792;2023-06-04T10:59:57;28.20;36.60
50955;DHT22;36966;48.064;-0.792;2023-06-04T11:02:17;28.20;36.90
50955;DHT22;36966;48.064;-0.792;2023-06-04T11:04:36;28.20;37.00
50955;DHT22;36966;48.064;-0.792;2023-06-04T11:07:03;28.20;37.10
50955;DHT22;36966;48.064;-0.792;2023-06-04T11:09:23;28.20;37.00
50955;DHT22;36966;48.064;-0.792;2023-06-04T11:11:42;28.30;36.00
50955;DHT22;36966;48.064;-0.792;2023-06-04T11:14:09;28.20;36.10
50955;DHT22;36966;48.064;-0.792;2023-06-04T11:16:31;28.20;36.70
50955;DHT22;36966;48.064;-0.792;2023-06-04T11:18:54;28.20;36.80
50955;DHT22;36966;48.064;-0.792;2023-06-04T11:21:14;28.20;36.60
50955;DHT22;36966;48.064;-0.792;2023-06-04T11:23:33;28.20;36.80
50955;DHT22;36966;48.064;-0.792;2023-06-04T11:25:53;28.20;36.60
50955;DHT22;36966;48.064;-0.792;2023-06-04T11:28:16;28.20;36.90
50955;DHT22;36966;48.064;-0.792;2023-06-04T11:30:40;28.10;36.10
50955;DHT22;36966;48.064;-0.792;2023-06-04T11:33:02;28.10;36.30
50955;DHT22;36966;48.064;-0.792;2023-06-04T11:35:22;28.00;35.90
50955;DHT22;36966;48.064;-0.792;2023-06-04T11:37:41;28.00;35.50
50955;DHT22;36966;48.064;-0.792;2023-06-04T11:40:01;28.00;36.30
50955;DHT22;36966;48.064;-0.792;2023-06-04T11:42:20;28.00;36.30
50955;DHT22;36966;48.064;-0.792;2023-06-04T11:44:39;27.90;36.50
50955;DHT22;36966;48.064;-0.792;2023-06-04T11:47:07;28.00;36.20
50955;DHT22;36966;48.064;-0.792;2023-06-04T11:49:27;27.90;36.60
50955;DHT22;36966;48.064;-0.792;2023-06-04T11:51:47;27.80;37.20
50955;DHT22;36966;48.064;-0.792;2023-06-04T11:54:06;27.90;36.50
50955;DHT22;36966;48.064;-0.792;2023-06-04T11:56:25;27.80;37.10
50955;DHT22;36966;48.064;-0.792;2023-06-04T11:58:45;27.80;36.90
50955;DHT22;36966;48.064;-0.792;2023-06-04T12:01:05;27.80;36.80
50955;DHT22;36966;48.064;-0.792;2023-06-04T12:06:14;27.70;36.30
50955;DHT22;36966;48.064;-0.792;2023-06-04T12:08:37;27.70;37.20
50955;DHT22;36966;48.064;-0.792;2023-06-04T12:11:03;27.70;37.40
50955;DHT22;36966;48.064;-0.792;2023-06-04T12:13:22;27.70;37.20
50955;DHT22;36966;48.064;-0.792;2023-06-04T12:15:41;27.60;37.10
50955;DHT22;36966;48.064;-0.792;2023-06-04T12:18:01;27.50;36.80
50955;DHT22;36966;48.064;-0.792;2023-06-04T12:20:34;27.50;36.50
50955;DHT22;36966;48.064;-0.792;2023-06-04T12:22:54;27.60;37.00
50955;DHT22;36966;48.064;-0.792;2023-06-04T12:25:23;27.50;37.00
50955;DHT22;36966;48.064;-0.792;2023-06-04T12:27:46;27.50;37.20
50955;DHT22;36966;48.064;-0.792;2023-06-04T12:30:06;27.50;36.60
50955;DHT22;36966;48.064;-0.792;2023-06-04T12:32:26;27.50;36.90
50955;DHT22;36966;48.064;-0.792;2023-06-04T12:34:46;27.50;36.10
50955;DHT22;36966;48.064;-0.792;2023-06-04T12:37:07;27.50;36.20
50955;DHT22;36966;48.064;-0.792;2023-06-04T12:39:27;27.40;36.80
50955;DHT22;36966;48.064;-0.792;2023-06-04T12:41:46;27.30;36.50
50955;DHT22;36966;48.064;-0.792;2023-06-04T12:44:05;27.40;36.50
50955;DHT22;36966;48.064;-0.792;2023-06-04T12:46:25;27.40;36.90
50955;DHT22;36966;48.064;-0.792;2023-06-04T12:48:44;27.50;36.00
50955;DHT22;36966;48.064;-0.792;2023-06-04T12:51:03;27.40;36.50
50955;DHT22;36966;48.064;-0.792;2023-06-04T12:53:22;27.30;36.90
50955;DHT22;36966;48.064;-0.792;2023-06-04T12:55:42;27.30;36.20
50955;DHT22;36966;48.064;-0.792;2023-06-04T12:58:01;27.30;36.90
50955;DHT22;36966;48.064;-0.792;2023-06-04T13:00:20;27.30;37.10
50955;DHT22;36966;48.064;-0.792;2023-06-04T13:02:39;27.40;37.10
50955;DHT22;36966;48.064;-0.792;2023-06-04T13:04:58;27.40;37.10
50955;DHT22;36966;48.064;-0.792;2023-06-04T13:07:18;27.50;36.80
50955;DHT22;36966;48.064;-0.792;2023-06-04T13:09:37;27.50;36.70
50955;DHT22;36966;48.064;-0.792;2023-06-04T13:11:56;27.50;36.90
50955;DHT22;36966;48.064;-0.792;2023-06-04T13:14:16;27.50;37.00
50955;DHT22;36966;48.064;-0.792;2023-06-04T13:16:35;27.50;37.10
50955;DHT22;36966;48.064;-0.792;2023-06-04T13:18:54;27.40;36.90
50955;DHT22;36966;48.064;-0.792;2023-06-04T13:21:14;27.40;37.00
50955;DHT22;36966;48.064;-0.792;2023-06-04T13:23:33;27.40;36.70
50955;DHT22;36966;48.064;-0.792;2023-06-04T13:25:52;27.50;36.80
50955;DHT22;36966;48.064;-0.792;2023-06-04T13:28:11;27.40;36.90
50955;DHT22;36966;48.064;-0.792;2023-06-04T13:30:31;27.40;36.90
50955;DHT22;36966;48.064;-0.792;2023-06-04T13:32:50;27.40;37.00
50955;DHT22;36966;48.064;-0.792;2023-06-04T13:35:09;27.40;37.00
50955;DHT22;36966;48.064;-0.792;2023-06-04T13:37:28;27.40;36.90
50955;DHT22;36966;48.064;-0.792;2023-06-04T13:39:48;27.40;36.90
50955;DHT22;36966;48.064;-0.792;2023-06-04T13:42:07;27.40;36.90
50955;DHT22;36966;48.064;-0.792;2023-06-04T13:44:26;27.30;36.80
50955;DHT22;36966;48.064;-0.792;2023-06-04T13:46:47;27.30;36.90
50955;DHT22;36966;48.064;-0.792;2023-06-04T13:49:06;27.40;37.00
50955;DHT22;36966;48.064;-0.792;2023-06-04T13:51:25;27.30;37.10
50955;DHT22;36966;48.064;-0.792;2023-06-04T13:53:46;27.30;36.90
50955;DHT22;36966;48.064;-0.792;2023-06-04T13:56:05;27.30;37.10
50955;DHT22;36966;48.064;-0.792;2023-06-04T13:58:25;27.30;37.10
50955;DHT22;36966;48.064;-0.792;2023-06-04T14:00:45;27.30;36.80
50955;DHT22;36966;48.064;-0.792;2023-06-04T14:03:04;27.30;36.70
50955;DHT22;36966;48.064;-0.792;2023-06-04T14:05:24;27.30;36.90
50955;DHT22;36966;48.064;-0.792;2023-06-04T14:07:47;27.30;36.70
50955;DHT22;36966;48.064;-0.792;2023-06-04T14:10:06;27.20;36.70
50955;DHT22;36966;48.064;-0.792;2023-06-04T14:12:26;27.20;36.20
50955;DHT22;36966;48.064;-0.792;2023-06-04T14:14:45;27.20;36.20
50955;DHT22;36966;48.064;-0.792;2023-06-04T14:17:05;27.20;36.50
50955;DHT22;36966;48.064;-0.792;2023-06-04T14:19:24;27.20;36.70
50955;DHT22;36966;48.064;-0.792;2023-06-04T14:21:44;27.20;36.80
50955;DHT22;36966;48.064;-0.792;2023-06-04T14:24:03;27.20;36.60
50955;DHT22;36966;48.064;-0.792;2023-06-04T14:26:26;27.20;36.80
50955;DHT22;36966;48.064;-0.792;2023-06-04T14:28:47;27.10;36.90
50955;DHT22;36966;48.064;-0.792;2023-06-04T14:31:07;27.10;37.20
50955;DHT22;36966;48.064;-0.792;2023-06-04T14:33:32;27.00;37.20
50955;DHT22;36966;48.064;-0.792;2023-06-04T14:35:51;27.10;37.20
50955;DHT22;36966;48.064;-0.792;2023-06-04T14:38:11;27.10;37.20
50955;DHT22;36966;48.064;-0.792;2023-06-04T14:40:30;27.00;37.30